sensor_id;sensor_type;location;lat;lon;timestamp;P1;durP1;ratioP1;P2;durP2;ratioP2
20859;SDS011;10590;48.154;11.514;2023-11-22T00:00:59;16.40;;;8.00;;
20859;SDS011;10590;48.154;11.514;2023-11-22T00:06:21;10.33;;;7.77;;
20859;SDS011;10590;48.154;11.514;2023-11-22T00:11:42;9.07;;;7.07;;
20859;SDS011;10590;48.154;11.514;2023-11-22T00:17:07;13.97;;;8.20;;
20859;SDS011;10590;48.154;11.514;2023-11-22T00:22:30;12.97;;;7.67;;
20859;SDS011;10590;48.154;11.514;2023-11-22T00:27:52;11.87;;;7.97;;
20859;SDS011;10590;48.154;11.514;2023-11-22T00:33:16;12.07;;;8.17;;
20859;SDS011;10590;48.154;11.514;2023-11-22T00:38:40;12.10;;;7.93;;
20859;SDS011;10590;48.154;11.514;2023-11-22T00:44:01;7.70;;;6.60;;
20859;SDS011;10590;48.154;11.514;2023-11-22T00:49:25;12.20;;;7.30;;
20859;SDS011;10590;48.154;11.514;2023-11-22T00:54:46;13.90;;;7.13;;
20859;SDS011;10590;48.154;11.514;2023-11-22T01:00:08;16.67;;;7.70;;
20859;SDS011;10590;48.154;11.514;2023-11-22T01:05:33;15.20;;;7.03;;
20859;SDS011;10590;48.154;11.514;2023-11-22T01:10:55;9.67;;;7.53;;
20859;SDS011;10590;48.154;11.514;2023-11-22T01:16:17;17.67;;;7.70;;
20859;SDS011;10590;48.154;11.514;2023-11-22T01:21:40;14.60;;;6.77;;
20859;SDS011;10590;48.154;11.514;2023-11-22T01:27:02;15.03;;;8.10;;
20859;SDS011;10590;48.154;11.514;2023-11-22T01:32:24;17.80;;;6.83;;
20859;SDS011;10590;48.154;11.514;2023-11-22T01:37:47;12.57;;;7.70;;
20859;SDS011;10590;48.154;11.514;2023-11-22T01:43:12;11.07;;;6.77;;
20859;SDS011;10590;48.154;11.514;2023-11-22T01:48:35;13.23;;;6.97;;
20859;SDS011;10590;48.154;11.514;2023-11-22T01:53:58;13.47;;;7.37;;
20859;SDS011;10590;48.154;11.514;2023-11-22T01:59:21;12.47;;;6.93;;
20859;SDS011;10590;48.154;11.514;2023-11-22T02:04:43;15.83;;;7.30;;
20859;SDS011;10590;48.154;11.514;2023-11-22T02:10:08;9.53;;;5.87;;
20859;SDS011;10590;48.154;11.514;2023-11-22T02:15:30;9.80;;;4.27;;
20859;SDS011;10590;48.154;11.514;2023-11-22T02:20:51;4.37;;;3.97;;
20859;SDS011;10590;48.154;11.514;2023-11-22T02:26:17;3.03;;;2.70;;
20859;SDS011;10590;48.154;11.514;2023-11-22T02:31:39;4.10;;;3.70;;
20859;SDS011;10590;48.154;11.514;2023-11-22T02:37:03;3.73;;;2.93;;
20859;SDS011;10590;48.154;11.514;2023-11-22T02:42:26;3.37;;;2.97;;
20859;SDS011;10590;48.154;11.514;2023-11-22T02:47:47;4.20;;;2.70;;
20859;SDS011;10590;48.154;11.514;2023-11-22T02:53:09;2.47;;;2.17;;
20859;SDS011;10590;48.154;11.514;2023-11-22T02:58:32;2.40;;;2.20;;
20859;SDS011;10590;48.154;11.514;2023-11-22T03:03:54;4.90;;;2.70;;
20859;SDS011;10590;48.154;11.514;2023-11-22T03:09:15;2.57;;;2.10;;
20859;SDS011;10590;48.154;11.514;2023-11-22T03:14:44;3.33;;;2.40;;
20859;SDS011;10590;48.154;11.514;2023-11-22T03:20:06;2.63;;;2.40;;
20859;SDS011;10590;48.154;11.514;2023-11-22T03:25:29;3.10;;;2.67;;
20859;SDS011;10590;48.154;11.514;2023-11-22T03:30:52;2.90;;;2.40;;
20859;SDS011;10590;48.154;11.514;2023-11-22T03:36:13;3.13;;;2.57;;
20859;SDS011;10590;48.154;11.514;2023-11-22T03:41:35;4.07;;;3.17;;
20859;SDS011;10590;48.154;11.514;2023-11-22T03:46:59;3.40;;;2.57;;
20859;SDS011;10590;48.154;11.514;2023-11-22T03:52:21;4.40;;;3.00;;
20859;SDS011;10590;48.154;11.514;2023-11-22T03:57:43;3.00;;;2.60;;
20859;SDS011;10590;48.154;11.514;2023-11-22T04:03:06;3.17;;;2.80;;
20859;SDS011;10590;48.154;11.514;2023-11-22T04:08:28;4.07;;;2.63;;
20859;SDS011;10590;48.154;11.514;2023-11-22T04:13:50;3.10;;;2.80;;
20859;SDS011;10590;48.154;11.514;2023-11-22T04:19:14;2.90;;;2.57;;
20859;SDS011;10590;48.154;11.514;2023-11-22T04:24:36;4.90;;;2.90;;
20859;SDS011;10590;48.154;11.514;2023-11-22T04:29:58;3.90;;;2.87;;
20859;SDS011;10590;48.154;11.514;2023-11-22T04:35:20;2.87;;;2.57;;
20859;SDS011;10590;48.154;11.514;2023-11-22T04:40:42;3.67;;;3.37;;
20859;SDS011;10590;48.154;11.514;2023-11-22T04:46:04;4.13;;;3.40;;
20859;SDS011;10590;48.154;11.514;2023-11-22T04:51:27;15.87;;;7.37;;
20859;SDS011;10590;48.154;11.514;2023-11-22T04:56:49;13.43;;;7.83;;
20859;SDS011;10590;48.154;11.514;2023-11-22T05:02:11;3.70;;;3.30;;
20859;SDS011;10590;48.154;11.514;2023-11-22T05:07:34;5.63;;;3.30;;
20859;SDS011;10590;48.154;11.514;2023-11-22T05:12:56;4.93;;;3.27;;
20859;SDS011;10590;48.154;11.514;2023-11-22T05:18:19;19.00;;;7.73;;
20859;SDS011;10590;48.154;11.514;2023-11-22T05:23:43;4.27;;;2.47;;
20859;SDS011;10590;48.154;11.514;2023-11-22T05:29:04;2.97;;;2.73;;
20859;SDS011;10590;48.154;11.514;2023-11-22T05:34:26;2.40;;;2.20;;
20859;SDS011;10590;48.154;11.514;2023-11-22T05:39:49;2.87;;;2.63;;
20859;SDS011;10590;48.154;11.514;2023-11-22T05:45:11;6.73;;;2.50;;
20859;SDS011;10590;48.154;11.514;2023-11-22T05:50:33;3.93;;;2.90;;
20859;SDS011;10590;48.154;11.514;2023-11-22T05:55:56;3.10;;;2.80;;
20859;SDS011;10590;48.154;11.514;2023-11-22T06:01:18;3.13;;;2.50;;
20859;SDS011;10590;48.154;11.514;2023-11-22T06:06:39;3.23;;;2.57;;
20859;SDS011;10590;48.154;11.514;2023-11-22T06:12:02;2.37;;;2.17;;
20859;SDS011;10590;48.154;11.514;2023-11-22T06:17:25;2.70;;;2.50;;
20859;SDS011;10590;48.154;11.514;2023-11-22T06:22:47;3.10;;;2.57;;
20859;SDS011;10590;48.154;11.514;2023-11-22T06:28:10;4.60;;;2.90;;
20859;SDS011;10590;48.154;11.514;2023-11-22T06:33:31;5.47;;;3.67;;
20859;SDS011;10590;48.154;11.514;2023-11-22T06:38:53;4.33;;;3.70;;
20859;SDS011;10590;48.154;11.514;2023-11-22T06:44:16;5.40;;;3.67;;
20859;SDS011;10590;48.154;11.514;2023-11-22T06:49:38;4.67;;;3.57;;
20859;SDS011;10590;48.154;11.514;2023-11-22T06:55:00;7.03;;;4.33;;
20859;SDS011;10590;48.154;11.514;2023-11-22T07:00:23;5.37;;;3.13;;
20859;SDS011;10590;48.154;11.514;2023-11-22T07:05:46;4.83;;;4.23;;
20859;SDS011;10590;48.154;11.514;2023-11-22T07:11:08;5.77;;;3.80;;
20859;SDS011;10590;48.154;11.514;2023-11-22T07:16:32;5.10;;;3.57;;
20859;SDS011;10590;48.154;11.514;2023-11-22T07:21:53;4.13;;;3.60;;
20859;SDS011;10590;48.154;11.514;2023-11-22T07:27:15;5.20;;;3.93;;
20859;SDS011;10590;48.154;11.514;2023-11-22T07:32:38;7.57;;;4.40;;
20859;SDS011;10590;48.154;11.514;2023-11-22T07:38:00;4.73;;;4.07;;
20859;SDS011;10590;48.154;11.514;2023-11-22T07:43:23;4.70;;;3.77;;
20859;SDS011;10590;48.154;11.514;2023-11-22T07:48:46;7.50;;;4.83;;
20859;SDS011;10590;48.154;11.514;2023-11-22T07:54:09;5.47;;;4.17;;
20859;SDS011;10590;48.154;11.514;2023-11-22T07:59:32;6.20;;;4.43;;
20859;SDS011;10590;48.154;11.514;2023-11-22T08:04:55;5.87;;;4.47;;
20859;SDS011;10590;48.154;11.514;2023-11-22T08:10:16;7.03;;;5.07;;
20859;SDS011;10590;48.154;11.514;2023-11-22T08:15:39;6.20;;;4.70;;
20859;SDS011;10590;48.154;11.514;2023-11-22T08:21:01;8.37;;;5.40;;
20859;SDS011;10590;48.154;11.514;2023-11-22T08:26:24;7.87;;;5.50;;
20859;SDS011;10590;48.154;11.514;2023-11-22T08:31:45;6.33;;;5.17;;
20859;SDS011;10590;48.154;11.514;2023-11-22T08:37:09;5.40;;;4.63;;
20859;SDS011;10590;48.154;11.514;2023-11-22T08:42:31;8.07;;;4.93;;
20859;SDS011;10590;48.154;11.514;2023-11-22T08:47:52;5.53;;;4.67;;
20859;SDS011;10590;48.154;11.514;2023-11-22T08:53:16;10.50;;;5.57;;
20859;SDS011;10590;48.154;11.514;2023-11-22T08:58:39;5.73;;;4.53;;
20859;SDS011;10590;48.154;11.514;2023-11-22T09:04:01;6.13;;;4.27;;
20859;SDS011;10590;48.154;11.514;2023-11-22T09:09:24;5.17;;;3.73;;
20859;SDS011;10590;48.154;11.514;2023-11-22T09:14:50;6.83;;;4.93;;
20859;SDS011;10590;48.154;11.514;2023-11-22T09:20:13;7.00;;;3.83;;
20859;SDS011;10590;48.154;11.514;2023-11-22T09:25:36;6.53;;;4.63;;
20859;SDS011;10590;48.154;11.514;2023-11-22T09:30:59;5.87;;;4.20;;
20859;SDS011;10590;48.154;11.514;2023-11-22T09:36:26;4.60;;;3.80;;
20859;SDS011;10590;48.154;11.514;2023-11-22T09:41:49;4.87;;;3.73;;
20859;SDS011;10590;48.154;11.514;2023-11-22T09:47:13;6.00;;;3.43;;
20859;SDS011;10590;48.154;11.514;2023-11-22T09:52:39;4.17;;;3.80;;
20859;SDS011;10590;48.154;11.514;2023-11-22T09:58:05;5.10;;;3.43;;
20859;SDS011;10590;48.154;11.514;2023-11-22T10:03:27;4.00;;;3.20;;
20859;SDS011;10590;48.154;11.514;2023-11-22T10:08:49;5.67;;;3.63;;
20859;SDS011;10590;48.154;11.514;2023-11-22T10:14:18;4.67;;;3.43;;
20859;SDS011;10590;48.154;11.514;2023-11-22T10:19:44;3.73;;;2.87;;
20859;SDS011;10590;48.154;11.514;2023-11-22T10:25:05;3.43;;;2.60;;
20859;SDS011;10590;48.154;11.514;2023-11-22T10:30:32;3.63;;;3.33;;
20859;SDS011;10590;48.154;11.514;2023-11-22T10:35:54;3.43;;;3.13;;
20859;SDS011;10590;48.154;11.514;2023-11-22T10:41:16;3.90;;;3.50;;
20859;SDS011;10590;48.154;11.514;2023-11-22T10:46:39;11.17;;;3.63;;
20859;SDS011;10590;48.154;11.514;2023-11-22T10:52:01;3.53;;;3.20;;
20859;SDS011;10590;48.154;11.514;2023-11-22T10:57:27;3.30;;;3.10;;
20859;SDS011;10590;48.154;11.514;2023-11-22T11:02:57;4.67;;;3.80;;
20859;SDS011;10590;48.154;11.514;2023-11-22T11:08:22;4.20;;;3.40;;
20859;SDS011;10590;48.154;11.514;2023-11-22T11:13:47;4.27;;;3.03;;
20859;SDS011;10590;48.154;11.514;2023-11-22T11:19:10;3.27;;;2.97;;
20859;SDS011;10590;48.154;11.514;2023-11-22T11:24:38;3.20;;;2.90;;
20859;SDS011;10590;48.154;11.514;2023-11-22T11:30:00;3.93;;;3.57;;
20859;SDS011;10590;48.154;11.514;2023-11-22T11:35:33;4.17;;;3.77;;
20859;SDS011;10590;48.154;11.514;2023-11-22T11:41:06;4.50;;;3.40;;
20859;SDS011;10590;48.154;11.514;2023-11-22T11:46:29;3.47;;;3.17;;
20859;SDS011;10590;48.154;11.514;2023-11-22T11:51:54;5.20;;;3.70;;
20859;SDS011;10590;48.154;11.514;2023-11-22T11:57:16;4.27;;;3.43;;
20859;SDS011;10590;48.154;11.514;2023-11-22T12:02:37;5.57;;;3.50;;
20859;SDS011;10590;48.154;11.514;2023-11-22T12:08:00;4.47;;;3.33;;
20859;SDS011;10590;48.154;11.514;2023-11-22T12:13:22;4.23;;;3.43;;
20859;SDS011;10590;48.154;11.514;2023-11-22T12:18:44;3.40;;;3.10;;
20859;SDS011;10590;48.154;11.514;2023-11-22T12:24:09;4.60;;;3.87;;
20859;SDS011;10590;48.154;11.514;2023-11-22T12:29:31;3.73;;;3.37;;
20859;SDS011;10590;48.154;11.514;2023-11-22T12:34:55;3.57;;;3.27;;
20859;SDS011;10590;48.154;11.514;2023-11-22T12:40:19;5.13;;;3.73;;
20859;SDS011;10590;48.154;11.514;2023-11-22T12:45:42;4.23;;;3.80;;
20859;SDS011;10590;48.154;11.514;2023-11-22T12:51:14;7.07;;;4.07;;
20859;SDS011;10590;48.154;11.514;2023-11-22T12:56:37;3.47;;;3.20;;
20859;SDS011;10590;48.154;11.514;2023-11-22T13:01:59;4.27;;;3.87;;
20859;SDS011;10590;48.154;11.514;2023-11-22T13:07:20;4.63;;;3.63;;
20859;SDS011;10590;48.154;11.514;2023-11-22T13:12:43;3.50;;;3.20;;
20859;SDS011;10590;48.154;11.514;2023-11-22T13:18:05;10.23;;;3.33;;
20859;SDS011;10590;48.154;11.514;2023-11-22T13:23:29;3.60;;;3.30;;
20859;SDS011;10590;48.154;11.514;2023-11-22T13:28:51;3.43;;;3.10;;
20859;SDS011;10590;48.154;11.514;2023-11-22T13:34:15;5.13;;;3.60;;
20859;SDS011;10590;48.154;11.514;2023-11-22T13:39:37;3.73;;;3.03;;
20859;SDS011;10590;48.154;11.514;2023-11-22T13:45:00;4.00;;;3.40;;
20859;SDS011;10590;48.154;11.514;2023-11-22T13:50:23;5.57;;;3.57;;
20859;SDS011;10590;48.154;11.514;2023-11-22T13:55:46;6.53;;;3.57;;
20859;SDS011;10590;48.154;11.514;2023-11-22T14:01:09;5.53;;;3.23;;
20859;SDS011;10590;48.154;11.514;2023-11-22T14:06:36;4.13;;;3.17;;
20859;SDS011;10590;48.154;11.514;2023-11-22T14:11:58;3.27;;;2.97;;
20859;SDS011;10590;48.154;11.514;2023-11-22T14:17:21;3.07;;;2.87;;
20859;SDS011;10590;48.154;11.514;2023-11-22T14:22:43;4.00;;;3.47;;
20859;SDS011;10590;48.154;11.514;2023-11-22T14:28:05;6.07;;;3.40;;
20859;SDS011;10590;48.154;11.514;2023-11-22T14:33:31;5.43;;;3.40;;
20859;SDS011;10590;48.154;11.514;2023-11-22T14:38:53;5.27;;;3.40;;
20859;SDS011;10590;48.154;11.514;2023-11-22T14:44:16;6.23;;;3.77;;
20859;SDS011;10590;48.154;11.514;2023-11-22T14:49:40;5.67;;;3.80;;
20859;SDS011;10590;48.154;11.514;2023-11-22T14:55:02;4.20;;;3.80;;
20859;SDS011;10590;48.154;11.514;2023-11-22T15:00:26;4.93;;;4.20;;
20859;SDS011;10590;48.154;11.514;2023-11-22T15:05:50;5.27;;;3.67;;
20859;SDS011;10590;48.154;11.514;2023-11-22T15:11:12;5.30;;;3.90;;
20859;SDS011;10590;48.154;11.514;2023-11-22T15:16:34;3.63;;;3.13;;
20859;SDS011;10590;48.154;11.514;2023-11-22T15:21:59;5.27;;;3.30;;
20859;SDS011;10590;48.154;11.514;2023-11-22T15:27:21;3.87;;;3.37;;
20859;SDS011;10590;48.154;11.514;2023-11-22T15:32:42;3.30;;;3.00;;
20859;SDS011;10590;48.154;11.514;2023-11-22T15:38:06;9.93;;;3.60;;
20859;SDS011;10590;48.154;11.514;2023-11-22T15:43:30;3.87;;;3.40;;
20859;SDS011;10590;48.154;11.514;2023-11-22T15:48:52;6.53;;;3.40;;
20859;SDS011;10590;48.154;11.514;2023-11-22T15:54:15;4.60;;;3.87;;
20859;SDS011;10590;48.154;11.514;2023-11-22T15:59:40;3.60;;;3.30;;
20859;SDS011;10590;48.154;11.514;2023-11-22T16:05:02;3.53;;;3.23;;
20859;SDS011;10590;48.154;11.514;2023-11-22T16:10:26;4.47;;;4.07;;
20859;SDS011;10590;48.154;11.514;2023-11-22T16:15:47;3.47;;;3.17;;
20859;SDS011;10590;48.154;11.514;2023-11-22T16:21:14;4.57;;;3.80;;
20859;SDS011;10590;48.154;11.514;2023-11-22T16:26:37;5.13;;;3.70;;
20859;SDS011;10590;48.154;11.514;2023-11-22T16:31:58;4.93;;;4.03;;
20859;SDS011;10590;48.154;11.514;2023-11-22T16:37:20;6.37;;;4.50;;
20859;SDS011;10590;48.154;11.514;2023-11-22T16:42:43;5.27;;;4.03;;
20859;SDS011;10590;48.154;11.514;2023-11-22T16:48:05;4.33;;;3.97;;
20859;SDS011;10590;48.154;11.514;2023-11-22T16:53:28;4.30;;;3.87;;
20859;SDS011;10590;48.154;11.514;2023-11-22T16:58:53;6.80;;;4.73;;
20859;SDS011;10590;48.154;11.514;2023-11-22T17:04:16;5.00;;;4.23;;
20859;SDS011;10590;48.154;11.514;2023-11-22T17:09:38;6.73;;;4.07;;
20859;SDS011;10590;48.154;11.514;2023-11-22T17:15:03;6.67;;;5.03;;
20859;SDS011;10590;48.154;11.514;2023-11-22T17:20:25;4.77;;;4.17;;
20859;SDS011;10590;48.154;11.514;2023-11-22T17:25:48;9.57;;;4.80;;
20859;SDS011;10590;48.154;11.514;2023-11-22T17:31:11;5.93;;;4.80;;
20859;SDS011;10590;48.154;11.514;2023-11-22T17:36:32;5.63;;;5.03;;
20859;SDS011;10590;48.154;11.514;2023-11-22T17:41:54;13.10;;;7.70;;
20859;SDS011;10590;48.154;11.514;2023-11-22T17:47:19;5.33;;;4.83;;
20859;SDS011;10590;48.154;11.514;2023-11-22T17:52:41;5.20;;;4.43;;
20859;SDS011;10590;48.154;11.514;2023-11-22T17:58:03;12.30;;;7.30;;
20859;SDS011;10590;48.154;11.514;2023-11-22T18:03:26;14.17;;;7.80;;
20859;SDS011;10590;48.154;11.514;2023-11-22T18:08:48;9.17;;;5.80;;
20859;SDS011;10590;48.154;11.514;2023-11-22T18:14:10;7.80;;;5.77;;
20859;SDS011;10590;48.154;11.514;2023-11-22T18:19:41;9.50;;;6.00;;
20859;SDS011;10590;48.154;11.514;2023-11-22T18:25:03;7.63;;;6.17;;
20859;SDS011;10590;48.154;11.514;2023-11-22T18:30:27;7.37;;;5.93;;
20859;SDS011;10590;48.154;11.514;2023-11-22T18:35:50;6.77;;;5.43;;
20859;SDS011;10590;48.154;11.514;2023-11-22T18:41:12;8.53;;;5.93;;
20859;SDS011;10590;48.154;11.514;2023-11-22T18:46:34;7.40;;;5.97;;
20859;SDS011;10590;48.154;11.514;2023-11-22T18:51:57;14.60;;;6.50;;
20859;SDS011;10590;48.154;11.514;2023-11-22T18:57:19;7.77;;;6.47;;
20859;SDS011;10590;48.154;11.514;2023-11-22T19:02:41;7.60;;;6.30;;
20859;SDS011;10590;48.154;11.514;2023-11-22T19:08:04;9.60;;;6.17;;
20859;SDS011;10590;48.154;11.514;2023-11-22T19:13:26;8.10;;;6.03;;
20859;SDS011;10590;48.154;11.514;2023-11-22T19:18:48;7.80;;;6.67;;
20859;SDS011;10590;48.154;11.514;2023-11-22T19:24:11;8.30;;;5.63;;
20859;SDS011;10590;48.154;11.514;2023-11-22T19:29:33;9.30;;;6.97;;
20859;SDS011;10590;48.154;11.514;2023-11-22T19:34:57;11.07;;;7.57;;
20859;SDS011;10590;48.154;11.514;2023-11-22T19:40:20;8.57;;;6.33;;
20859;SDS011;10590;48.154;11.514;2023-11-22T19:45:44;9.20;;;6.33;;
20859;SDS011;10590;48.154;11.514;2023-11-22T19:51:06;8.53;;;6.67;;
20859;SDS011;10590;48.154;11.514;2023-11-22T19:56:29;8.17;;;6.60;;
20859;SDS011;10590;48.154;11.514;2023-11-22T20:01:51;7.93;;;6.20;;
20859;SDS011;10590;48.154;11.514;2023-11-22T20:07:14;8.50;;;6.37;;
20859;SDS011;10590;48.154;11.514;2023-11-22T20:12:38;45.77;;;19.73;;
20859;SDS011;10590;48.154;11.514;2023-11-22T20:18:01;8.23;;;6.53;;
20859;SDS011;10590;48.154;11.514;2023-11-22T20:23:26;10.77;;;6.57;;
20859;SDS011;10590;48.154;11.514;2023-11-22T20:28:49;9.83;;;7.13;;
20859;SDS011;10590;48.154;11.514;2023-11-22T20:34:11;10.57;;;7.03;;
20859;SDS011;10590;48.154;11.514;2023-11-22T20:39:32;12.83;;;7.87;;
20859;SDS011;10590;48.154;11.514;2023-11-22T20:44:55;14.60;;;8.33;;
20859;SDS011;10590;48.154;11.514;2023-11-22T20:50:17;10.87;;;7.93;;
20859;SDS011;10590;48.154;11.514;2023-11-22T20:55:38;18.20;;;10.43;;
20859;SDS011;10590;48.154;11.514;2023-11-22T21:01:01;16.40;;;8.37;;
20859;SDS011;10590;48.154;11.514;2023-11-22T21:06:23;14.00;;;8.70;;
20859;SDS011;10590;48.154;11.514;2023-11-22T21:11:45;10.33;;;7.83;;
20859;SDS011;10590;48.154;11.514;2023-11-22T21:17:08;10.70;;;8.73;;
20859;SDS011;10590;48.154;11.514;2023-11-22T21:22:30;11.83;;;7.93;;
20859;SDS011;10590;48.154;11.514;2023-11-22T21:27:52;25.53;;;10.80;;
20859;SDS011;10590;48.154;11.514;2023-11-22T21:33:15;16.10;;;9.53;;
20859;SDS011;10590;48.154;11.514;2023-11-22T21:38:37;17.00;;;9.90;;
20859;SDS011;10590;48.154;11.514;2023-11-22T21:43:58;15.47;;;9.37;;
20859;SDS011;10590;48.154;11.514;2023-11-22T21:49:21;14.83;;;8.83;;
20859;SDS011;10590;48.154;11.514;2023-11-22T21:54:43;14.73;;;9.53;;
20859;SDS011;10590;48.154;11.514;2023-11-22T22:00:05;11.97;;;9.07;;
20859;SDS011;10590;48.154;11.514;2023-11-22T22:05:32;16.67;;;10.30;;
20859;SDS011;10590;48.154;11.514;2023-11-22T22:10:56;13.67;;;9.17;;
20859;SDS011;10590;48.154;11.514;2023-11-22T22:16:17;13.90;;;9.87;;
20859;SDS011;10590;48.154;11.514;2023-11-22T22:21:40;19.13;;;10.77;;
20859;SDS011;10590;48.154;11.514;2023-11-22T22:27:02;16.80;;;9.30;;
20859;SDS011;10590;48.154;11.514;2023-11-22T22:32:24;16.93;;;10.57;;
20859;SDS011;10590;48.154;11.514;2023-11-22T22:37:48;15.40;;;10.37;;
20859;SDS011;10590;48.154;11.514;2023-11-22T22:43:10;19.23;;;10.10;;
20859;SDS011;10590;48.154;11.514;2023-11-22T22:48:31;13.83;;;9.30;;
20859;SDS011;10590;48.154;11.514;2023-11-22T22:53:54;16.27;;;9.97;;
20859;SDS011;10590;48.154;11.514;2023-11-22T22:59:16;18.77;;;9.93;;
20859;SDS011;10590;48.154;11.514;2023-11-22T23:04:38;13.30;;;9.50;;
20859;SDS011;10590;48.154;11.514;2023-11-22T23:10:05;18.37;;;10.33;;
20859;SDS011;10590;48.154;11.514;2023-11-22T23:15:29;16.43;;;8.63;;
20859;SDS011;10590;48.154;11.514;2023-11-22T23:20:51;15.73;;;9.67;;
20859;SDS011;10590;48.154;11.514;2023-11-22T23:26:19;14.60;;;9.87;;
20859;SDS011;10590;48.154;11.514;2023-11-22T23:31:41;17.17;;;10.10;;
20859;SDS011;10590;48.154;11.514;2023-11-22T23:37:03;20.20;;;10.60;;
20859;SDS011;10590;48.154;11.514;2023-11-22T23:42:27;17.07;;;11.17;;
20859;SDS011;10590;48.154;11.514;2023-11-22T23:47:48;20.90;;;12.27;;
20859;SDS011;10590;48.154;11.514;2023-11-22T23:53:10;21.77;;;12.50;;
20859;SDS011;10590;48.154;11.514;2023-11-22T23:58:33;22.90;;;12.53;;
